createdAt,value
2019-03-22T00:01:35.750Z,99.90
2019-03-22T00:04:06.618Z,99.90
2019-03-22T00:06:37.446Z,99.90
2019-03-22T00:09:08.427Z,99.90
2019-03-22T00:11:39.202Z,99.90
2019-03-22T00:14:09.434Z,99.90
2019-03-22T00:16:39.635Z,99.90
2019-03-22T00:19:10.434Z,99.90
2019-03-22T00:21:41.202Z,99.90
2019-03-22T00:24:11.448Z,99.90
2019-03-22T00:26:41.646Z,99.90
2019-03-22T00:29:11.882Z,99.90
2019-03-22T00:31:42.122Z,99.90
2019-03-22T00:34:12.322Z,99.90
2019-03-22T00:36:42.560Z,99.90
2019-03-22T00:39:12.763Z,99.90
2019-03-22T00:41:42.992Z,99.90
2019-03-22T00:44:13.255Z,99.90
2019-03-22T00:46:43.498Z,99.90
2019-03-22T00:49:13.701Z,99.90
2019-03-22T00:51:43.926Z,99.90
2019-03-22T00:54:14.136Z,99.90
2019-03-22T00:56:44.374Z,99.90
2019-03-22T00:59:14.582Z,99.90
2019-03-22T01:01:44.828Z,99.90
2019-03-22T01:04:15.018Z,99.90
2019-03-22T01:06:45.249Z,99.90
2019-03-22T01:09:15.396Z,99.90
2019-03-22T01:11:45.703Z,99.90
2019-03-22T01:14:15.910Z,99.90
2019-03-22T01:16:46.450Z,99.90
2019-03-22T01:19:17.164Z,99.90
2019-03-22T01:21:47.423Z,99.90
2019-03-22T01:24:17.691Z,99.90
2019-03-22T01:26:47.910Z,99.90
2019-03-22T01:29:18.111Z,99.90
2019-03-22T01:31:48.712Z,99.90
2019-03-22T01:34:19.262Z,99.90
2019-03-22T01:36:49.794Z,99.90
2019-03-22T01:39:19.987Z,99.90
2019-03-22T01:41:50.542Z,99.90
2019-03-22T01:44:21.079Z,99.90
2019-03-22T01:46:51.313Z,99.90
2019-03-22T01:49:21.848Z,99.90
2019-03-22T01:51:52.365Z,99.90
2019-03-22T01:54:22.578Z,99.90
2019-03-22T01:56:52.809Z,99.90
2019-03-22T01:59:23.050Z,99.90
2019-03-22T02:01:53.282Z,99.90
2019-03-22T02:04:23.484Z,99.90
2019-03-22T02:06:53.693Z,99.90
2019-03-22T02:09:23.900Z,99.90
2019-03-22T02:11:54.125Z,99.90
2019-03-22T02:14:24.332Z,99.90
2019-03-22T02:16:54.828Z,99.90
2019-03-22T02:19:25.063Z,99.90
2019-03-22T02:21:55.290Z,99.90
2019-03-22T02:24:25.813Z,99.90
2019-03-22T02:26:56.038Z,99.90
2019-03-22T02:29:26.241Z,99.90
2019-03-22T02:31:56.463Z,99.90
2019-03-22T02:34:26.647Z,99.90
2019-03-22T02:36:56.873Z,99.90
2019-03-22T02:39:27.474Z,99.90
2019-03-22T02:41:57.774Z,99.90
2019-03-22T02:44:28.058Z,99.90
2019-03-22T02:46:58.472Z,99.90
2019-03-22T02:49:28.659Z,99.90
2019-03-22T02:51:58.894Z,99.90
2019-03-22T02:54:29.431Z,99.90
2019-03-22T02:56:59.970Z,99.90
2019-03-22T02:59:30.174Z,99.90
2019-03-22T03:02:00.393Z,99.90
2019-03-22T03:04:30.598Z,99.90
2019-03-22T03:07:00.818Z,99.90
2019-03-22T03:09:31.032Z,99.90
2019-03-22T03:12:01.401Z,99.90
2019-03-22T03:14:31.598Z,99.90
2019-03-22T03:17:02.077Z,99.90
2019-03-22T03:19:32.269Z,99.90
2019-03-22T03:22:02.504Z,99.90
2019-03-22T03:24:32.687Z,99.90
2019-03-22T03:27:02.908Z,99.90
2019-03-22T03:29:33.407Z,99.90
2019-03-22T03:32:03.625Z,99.90
2019-03-22T03:34:33.819Z,99.90
2019-03-22T03:37:04.158Z,99.90
2019-03-22T03:39:34.402Z,99.90
2019-03-22T03:42:04.939Z,99.90
2019-03-22T03:44:35.151Z,99.90
2019-03-22T03:47:05.694Z,99.90
2019-03-22T03:49:35.891Z,99.90
2019-03-22T03:52:06.472Z,99.90
2019-03-22T03:54:36.991Z,99.90
2019-03-22T03:57:07.205Z,99.90
2019-03-22T03:59:37.401Z,99.90
2019-03-22T04:02:07.627Z,99.90
2019-03-22T04:04:37.834Z,99.90
2019-03-22T04:07:08.059Z,99.90
2019-03-22T04:09:38.268Z,99.90
2019-03-22T04:12:08.491Z,99.90
2019-03-22T04:14:38.682Z,99.90
2019-03-22T04:17:09.216Z,99.90
2019-03-22T04:19:39.446Z,99.90
2019-03-22T04:22:09.720Z,99.90
2019-03-22T04:24:40.200Z,99.90
2019-03-22T04:27:10.430Z,99.90
2019-03-22T04:29:40.605Z,99.90
2019-03-22T04:32:10.836Z,99.90
2019-03-22T04:34:41.032Z,99.90
2019-03-22T04:37:11.250Z,99.90
2019-03-22T04:39:41.749Z,99.90
2019-03-22T04:42:11.971Z,99.90
2019-03-22T04:44:42.410Z,99.90
2019-03-22T04:47:15.381Z,99.90
2019-03-22T04:49:47.769Z,99.90
2019-03-22T04:52:20.602Z,99.90
2019-03-22T04:54:52.814Z,99.90
2019-03-22T04:57:23.373Z,99.90
2019-03-22T04:59:53.915Z,99.90
2019-03-22T05:02:24.622Z,99.90
2019-03-22T05:04:55.077Z,99.90
2019-03-22T05:07:25.694Z,99.90
2019-03-22T05:09:56.226Z,99.90
2019-03-22T05:12:26.895Z,99.90
2019-03-22T05:14:58.026Z,99.90
2019-03-22T05:17:29.916Z,99.90
2019-03-22T05:20:00.847Z,99.90
2019-03-22T05:22:32.264Z,99.90
2019-03-22T05:25:04.400Z,99.90
2019-03-22T05:27:37.690Z,99.90
2019-03-22T05:30:10.522Z,99.90
2019-03-22T05:32:40.742Z,99.90
2019-03-22T05:35:11.273Z,99.90
2019-03-22T05:37:41.802Z,99.90
2019-03-22T05:40:12.334Z,99.90
2019-03-22T05:42:42.873Z,99.90
2019-03-22T05:45:13.131Z,99.90
2019-03-22T05:47:43.359Z,99.90
2019-03-22T05:50:13.558Z,99.90
2019-03-22T05:52:43.780Z,99.90
2019-03-22T05:55:13.977Z,99.90
2019-03-22T05:57:44.532Z,99.90
2019-03-22T06:00:16.498Z,99.90
2019-03-22T06:02:46.719Z,99.90
2019-03-22T06:05:17.242Z,99.90
2019-03-22T06:07:47.784Z,99.90
2019-03-22T06:10:18.346Z,99.90
2019-03-22T06:12:48.954Z,99.90
2019-03-22T06:15:19.159Z,99.90
2019-03-22T06:17:51.883Z,99.90
2019-03-22T06:20:21.346Z,99.90
2019-03-22T06:22:51.899Z,99.90
2019-03-22T06:25:22.101Z,99.90
2019-03-22T06:27:52.317Z,99.90
2019-03-22T06:30:22.501Z,99.90
2019-03-22T06:32:52.743Z,99.90
2019-03-22T06:35:22.930Z,99.90
2019-03-22T06:37:53.166Z,99.90
2019-03-22T06:40:23.936Z,99.90
2019-03-22T06:42:54.163Z,99.90
2019-03-22T06:45:24.354Z,99.90
2019-03-22T06:47:54.590Z,99.90
2019-03-22T06:50:24.800Z,99.90
2019-03-22T06:52:55.031Z,99.90
2019-03-22T06:55:25.250Z,99.90
2019-03-22T06:57:55.763Z,99.90
2019-03-22T07:00:26.311Z,99.90
2019-03-22T07:02:56.604Z,99.90
2019-03-22T07:05:26.794Z,99.90
2019-03-22T07:07:57.026Z,99.90
2019-03-22T07:10:27.602Z,99.90
2019-03-22T07:12:58.133Z,99.90
2019-03-22T07:15:28.331Z,99.90
2019-03-22T07:17:58.899Z,99.90
2019-03-22T07:20:29.139Z,99.90
2019-03-22T07:23:00.911Z,99.90
2019-03-22T07:25:31.105Z,99.90
2019-03-22T07:28:01.322Z,99.90
2019-03-22T07:30:31.870Z,99.90
2019-03-22T07:33:02.094Z,99.90
2019-03-22T07:35:32.303Z,99.90
2019-03-22T07:38:02.539Z,99.90
2019-03-22T07:40:32.758Z,99.90
2019-03-22T07:43:02.945Z,99.90
2019-03-22T07:45:33.436Z,99.90
2019-03-22T07:48:03.960Z,99.90
2019-03-22T07:50:34.481Z,99.90
2019-03-22T07:53:04.765Z,99.90
2019-03-22T07:55:35.074Z,99.90
2019-03-22T07:58:05.342Z,99.90
2019-03-22T08:00:35.907Z,99.90
2019-03-22T08:03:06.098Z,99.90
2019-03-22T08:05:36.313Z,99.90
2019-03-22T08:08:06.548Z,99.90
2019-03-22T08:10:36.772Z,99.90
2019-03-22T08:13:06.979Z,99.90
2019-03-22T08:15:37.266Z,99.90
2019-03-22T08:18:07.489Z,99.90
2019-03-22T08:20:38.986Z,99.90
2019-03-22T08:23:17.951Z,99.90
2019-03-22T08:25:49.412Z,99.90
2019-03-22T08:28:20.755Z,99.90
2019-03-22T08:30:51.801Z,99.90
2019-03-22T08:33:22.633Z,99.90
2019-03-22T08:35:53.438Z,99.90
2019-03-22T08:38:24.527Z,99.90
2019-03-22T08:40:55.665Z,99.90
2019-03-22T08:43:26.730Z,99.90
2019-03-22T08:45:57.539Z,99.90
2019-03-22T08:48:28.706Z,99.90
2019-03-22T08:50:59.505Z,99.90
2019-03-22T08:53:30.309Z,99.90
2019-03-22T08:56:01.460Z,99.90
2019-03-22T08:58:32.274Z,99.90
2019-03-22T09:01:03.091Z,99.90
2019-03-22T09:03:34.145Z,99.90
2019-03-22T09:06:07.786Z,99.90
2019-03-22T09:08:38.072Z,99.90
2019-03-22T09:11:09.132Z,99.90
2019-03-22T09:13:39.921Z,99.90
2019-03-22T09:16:10.779Z,99.90
2019-03-22T09:18:41.844Z,99.90
2019-03-22T09:21:13.620Z,99.90
2019-03-22T09:23:44.363Z,99.90
2019-03-22T09:26:15.168Z,99.90
2019-03-22T09:28:46.238Z,99.90
2019-03-22T09:31:17.013Z,99.90
2019-03-22T09:33:48.110Z,99.90
2019-03-22T09:36:19.288Z,99.90
2019-03-22T09:38:50.110Z,99.90
2019-03-22T09:41:20.939Z,99.90
2019-03-22T09:43:51.962Z,99.90
2019-03-22T09:46:23.119Z,99.90
2019-03-22T09:48:54.172Z,99.90
2019-03-22T09:51:24.965Z,99.90
2019-03-22T09:53:56.038Z,99.90
2019-03-22T09:56:26.837Z,99.50
2019-03-22T09:58:57.624Z,99.50
2019-03-22T10:01:28.449Z,98.20
2019-03-22T10:03:59.310Z,97.90
2019-03-22T10:06:30.141Z,97.60
2019-03-22T10:09:05.031Z,97.10
2019-03-22T10:11:33.420Z,95.30
2019-03-22T10:14:04.570Z,95.50
2019-03-22T10:16:35.798Z,95.40
2019-03-22T10:19:06.718Z,95.80
2019-03-22T10:21:37.561Z,94.40
2019-03-22T10:24:08.376Z,94.60
2019-03-22T10:26:39.518Z,93.60
2019-03-22T10:29:10.273Z,94.10
2019-03-22T10:31:41.083Z,90.80
2019-03-22T10:34:12.232Z,91.50
2019-03-22T10:36:43.056Z,90.50
2019-03-22T10:39:13.857Z,80.20
2019-03-22T10:41:44.693Z,82.20
2019-03-22T10:44:15.836Z,73.40
2019-03-22T10:46:46.641Z,76.80
2019-03-22T10:49:17.841Z,76.60
2019-03-22T10:51:56.994Z,67.00
2019-03-22T10:54:21.131Z,65.70
2019-03-22T10:56:52.144Z,68.80
2019-03-22T10:59:22.926Z,67.30
2019-03-22T11:02:03.135Z,63.70
2019-03-22T11:04:26.522Z,60.30
2019-03-22T11:06:57.638Z,54.40
2019-03-22T11:09:28.452Z,54.50
2019-03-22T11:11:59.209Z,53.70
2019-03-22T11:14:30.007Z,52.30
2019-03-22T11:17:00.779Z,52.90
2019-03-22T11:19:31.847Z,52.80
2019-03-22T11:22:02.602Z,50.20
2019-03-22T11:24:33.723Z,52.30
2019-03-22T11:27:04.554Z,50.60
2019-03-22T11:29:37.176Z,50.70
2019-03-22T11:32:12.649Z,54.30
2019-03-22T11:34:40.481Z,51.00
2019-03-22T11:37:11.258Z,50.50
2019-03-22T11:39:42.345Z,51.80
2019-03-22T11:42:13.178Z,49.70
2019-03-22T11:44:44.229Z,48.80
2019-03-22T11:47:14.983Z,49.10
2019-03-22T11:49:45.781Z,47.40
2019-03-22T11:52:16.628Z,49.90
2019-03-22T11:54:47.679Z,49.10
2019-03-22T11:57:18.443Z,50.30
2019-03-22T11:59:49.237Z,51.60
2019-03-22T12:02:22.574Z,50.60
2019-03-22T12:04:52.503Z,51.40
2019-03-22T12:07:23.266Z,49.60
2019-03-22T12:09:54.070Z,47.50
2019-03-22T12:12:24.834Z,48.60
2019-03-22T12:14:55.631Z,48.30
2019-03-22T12:17:26.396Z,49.10
2019-03-22T12:19:57.721Z,47.40
2019-03-22T12:22:28.474Z,48.40
2019-03-22T12:24:59.597Z,48.10
2019-03-22T12:27:36.458Z,46.90
2019-03-22T12:30:03.152Z,47.80
2019-03-22T12:32:33.915Z,49.10
2019-03-22T12:35:07.449Z,47.50
2019-03-22T12:37:38.241Z,46.60
2019-03-22T12:40:18.551Z,46.80
2019-03-22T12:42:50.098Z,47.80
2019-03-22T12:45:29.522Z,47.00
2019-03-22T12:48:00.299Z,45.60
2019-03-22T12:50:31.105Z,45.50
2019-03-22T12:53:02.178Z,47.10
2019-03-22T12:55:32.985Z,44.80
2019-03-22T12:58:03.818Z,45.80
2019-03-22T13:00:34.616Z,46.20
2019-03-22T13:03:05.381Z,45.30
2019-03-22T13:05:36.455Z,46.50
2019-03-22T13:08:07.221Z,46.70
2019-03-22T13:10:38.340Z,46.50
2019-03-22T13:13:09.098Z,47.10
2019-03-22T13:15:39.904Z,46.70
2019-03-22T13:18:10.676Z,46.30
2019-03-22T13:20:41.468Z,46.90
2019-03-22T13:23:12.537Z,44.80
2019-03-22T13:25:43.575Z,46.00
2019-03-22T13:28:14.339Z,45.20
2019-03-22T13:30:45.136Z,45.00
2019-03-22T13:33:16.206Z,45.00
2019-03-22T13:35:47.347Z,45.20
2019-03-22T13:38:18.123Z,47.50
2019-03-22T13:40:49.241Z,46.70
2019-03-22T13:43:20.085Z,46.50
2019-03-22T13:45:51.216Z,45.10
2019-03-22T13:48:21.982Z,44.80
2019-03-22T13:50:53.098Z,44.70
2019-03-22T13:53:23.860Z,44.60
2019-03-22T13:55:54.646Z,45.00
2019-03-22T13:58:25.588Z,45.20
2019-03-22T14:00:56.451Z,45.50
2019-03-22T14:03:27.217Z,45.20
2019-03-22T14:05:58.337Z,45.10
2019-03-22T14:08:29.090Z,45.00
2019-03-22T14:11:00.214Z,45.30
2019-03-22T14:13:31.046Z,45.80
2019-03-22T14:16:02.126Z,45.70
2019-03-22T14:18:32.893Z,45.20
2019-03-22T14:21:03.756Z,45.50
2019-03-22T14:23:34.822Z,46.00
2019-03-22T14:26:05.616Z,46.10
2019-03-22T14:28:36.455Z,45.20
2019-03-22T14:31:07.646Z,45.20
2019-03-22T14:33:38.699Z,45.40
2019-03-22T14:36:09.550Z,43.40
2019-03-22T14:38:40.319Z,45.30
2019-03-22T14:41:11.113Z,45.00
2019-03-22T14:43:41.878Z,45.10
2019-03-22T14:46:12.661Z,45.40
2019-03-22T14:48:43.426Z,45.90
2019-03-22T14:51:14.214Z,46.40
2019-03-22T14:53:44.970Z,46.30
2019-03-22T14:56:15.771Z,45.90
2019-03-22T14:58:46.610Z,45.20
2019-03-22T15:01:17.405Z,45.30
2019-03-22T15:03:48.457Z,46.20
2019-03-22T15:06:19.510Z,46.10
2019-03-22T15:08:50.270Z,46.00
2019-03-22T15:11:21.386Z,45.40
2019-03-22T15:13:53.792Z,45.20
2019-03-22T15:16:26.218Z,46.50
2019-03-22T15:19:14.941Z,46.40
2019-03-22T15:21:47.378Z,45.80
2019-03-22T15:24:35.998Z,46.10
2019-03-22T15:27:23.722Z,46.80
2019-03-22T15:30:14.509Z,47.50
2019-03-22T15:32:49.884Z,47.20
2019-03-22T15:35:34.828Z,46.40
2019-03-22T15:38:13.226Z,47.60
2019-03-22T15:40:44.274Z,46.20
2019-03-22T15:43:15.418Z,46.50
2019-03-22T15:45:46.194Z,48.00
2019-03-22T15:48:17.003Z,47.90
2019-03-22T15:50:47.770Z,47.70
2019-03-22T15:53:18.880Z,47.10
2019-03-22T15:55:49.675Z,47.30
2019-03-22T15:58:20.757Z,46.30
2019-03-22T16:00:51.807Z,47.40
2019-03-22T16:03:22.662Z,47.30
2019-03-22T16:05:53.421Z,47.40
2019-03-22T16:08:24.518Z,48.30
2019-03-22T16:10:55.320Z,48.40
2019-03-22T16:13:26.096Z,48.50
2019-03-22T16:15:56.899Z,48.70
2019-03-22T16:18:27.993Z,47.20
2019-03-22T16:21:00.180Z,47.50
2019-03-22T16:23:31.256Z,48.00
2019-03-22T16:26:02.023Z,48.40
2019-03-22T16:28:32.821Z,48.10
2019-03-22T16:31:03.927Z,48.30
2019-03-22T16:33:34.969Z,47.50
2019-03-22T16:36:06.011Z,47.50
2019-03-22T16:38:36.779Z,47.90
2019-03-22T16:41:07.570Z,47.70
2019-03-22T16:43:38.327Z,48.40
2019-03-22T16:46:09.116Z,47.90
2019-03-22T16:48:39.905Z,48.00
2019-03-22T16:51:10.696Z,48.10
2019-03-22T16:53:41.490Z,48.40
2019-03-22T16:56:12.259Z,48.60
2019-03-22T16:58:43.056Z,48.40
2019-03-22T17:01:13.910Z,48.20
2019-03-22T17:03:44.937Z,48.70
2019-03-22T17:06:15.730Z,49.30
2019-03-22T17:08:46.495Z,49.30
2019-03-22T17:11:17.278Z,48.80
2019-03-22T17:13:48.038Z,49.20
2019-03-22T17:16:18.834Z,49.70
2019-03-22T17:18:49.594Z,49.80
2019-03-22T17:21:20.381Z,50.10
2019-03-22T17:23:51.442Z,50.20
2019-03-22T17:26:22.235Z,50.70
2019-03-22T17:28:52.999Z,51.00
2019-03-22T17:31:23.795Z,51.40
2019-03-22T17:33:54.898Z,51.20
2019-03-22T17:36:26.066Z,51.90
2019-03-22T17:38:57.095Z,52.20
2019-03-22T17:41:27.881Z,52.60
2019-03-22T17:43:58.970Z,52.60
2019-03-22T17:46:29.768Z,52.80
2019-03-22T17:49:00.521Z,53.10
2019-03-22T17:51:31.318Z,53.50
2019-03-22T17:54:02.336Z,53.60
2019-03-22T17:56:33.369Z,53.60
2019-03-22T17:59:04.416Z,53.90
2019-03-22T18:01:35.279Z,54.10
2019-03-22T18:04:06.110Z,54.20
2019-03-22T18:06:36.903Z,54.70
2019-03-22T18:09:08.069Z,55.30
2019-03-22T18:11:39.123Z,55.20
2019-03-22T18:14:10.161Z,55.80
2019-03-22T18:16:40.945Z,55.90
2019-03-22T18:19:12.056Z,55.80
2019-03-22T18:21:42.846Z,56.30
2019-03-22T18:24:13.610Z,57.10
2019-03-22T18:26:44.414Z,57.40
2019-03-22T18:29:15.511Z,57.80
2019-03-22T18:31:46.313Z,58.60
2019-03-22T18:34:17.134Z,59.10
2019-03-22T18:36:48.225Z,59.50
2019-03-22T18:39:19.003Z,63.10
2019-03-22T18:41:50.114Z,65.10
2019-03-22T18:44:20.874Z,67.50
2019-03-22T18:46:51.682Z,71.00
2019-03-22T18:49:22.450Z,72.70
2019-03-22T18:51:53.263Z,74.90
2019-03-22T18:54:24.033Z,77.00
2019-03-22T18:56:54.855Z,79.70
2019-03-22T18:59:25.628Z,84.30
2019-03-22T19:01:56.729Z,86.10
2019-03-22T19:04:27.530Z,86.20
2019-03-22T19:06:58.335Z,87.10
2019-03-22T19:09:29.106Z,88.60
2019-03-22T19:11:59.902Z,90.00
2019-03-22T19:14:30.669Z,90.80
2019-03-22T19:17:01.452Z,91.00
2019-03-22T19:19:32.264Z,91.10
2019-03-22T19:22:03.035Z,91.60
2019-03-22T19:24:34.078Z,91.90
2019-03-22T19:27:28.156Z,92.00
2019-03-22T19:29:58.954Z,92.00
2019-03-22T19:32:29.726Z,92.10
2019-03-22T19:35:00.512Z,92.50
2019-03-22T19:37:31.279Z,93.00
2019-03-22T19:40:02.078Z,93.20
2019-03-22T19:42:32.872Z,93.40
2019-03-22T19:45:08.182Z,93.80
2019-03-22T19:47:38.969Z,94.10
2019-03-22T19:50:14.965Z,94.20
2019-03-22T19:52:46.048Z,94.10
2019-03-22T19:55:41.471Z,94.10
2019-03-22T19:58:12.489Z,93.90
2019-03-22T20:00:43.292Z,94.20
2019-03-22T20:03:14.094Z,94.00
2019-03-22T20:05:45.104Z,94.20
2019-03-22T20:08:15.918Z,94.20
2019-03-22T20:10:47.001Z,94.20
2019-03-22T20:13:17.791Z,94.40
2019-03-22T20:15:48.979Z,94.60
2019-03-22T20:18:19.785Z,94.60
2019-03-22T20:20:50.551Z,94.60
2019-03-22T20:23:21.494Z,94.50
2019-03-22T20:25:52.261Z,94.40
2019-03-22T20:28:23.082Z,94.50
2019-03-22T20:30:53.831Z,95.00
2019-03-22T20:33:24.625Z,94.80
2019-03-22T20:35:55.386Z,95.00
2019-03-22T20:38:26.628Z,95.20
2019-03-22T20:40:57.387Z,95.60
2019-03-22T20:43:28.182Z,95.80
2019-03-22T20:45:59.254Z,96.90
2019-03-22T20:48:30.051Z,96.80
2019-03-22T20:51:00.813Z,96.90
2019-03-22T20:54:03.158Z,97.20
2019-03-22T20:56:33.922Z,97.50
2019-03-22T20:59:04.785Z,97.20
2019-03-22T21:01:35.541Z,97.40
2019-03-22T21:04:06.329Z,97.60
2019-03-22T21:06:37.100Z,97.90
2019-03-22T21:09:07.902Z,97.50
2019-03-22T21:11:39.000Z,98.30
2019-03-22T21:14:10.634Z,97.80
2019-03-22T21:16:41.370Z,97.60
2019-03-22T21:19:12.812Z,98.40
2019-03-22T21:21:43.575Z,98.80
2019-03-22T21:24:14.377Z,98.90
2019-03-22T21:26:45.138Z,99.40
2019-03-22T21:29:16.279Z,99.30
2019-03-22T21:31:47.041Z,99.20
2019-03-22T21:34:18.152Z,99.70
2019-03-22T21:36:49.190Z,99.90
2019-03-22T21:39:20.244Z,99.90
2019-03-22T21:41:51.279Z,99.90
2019-03-22T21:44:22.163Z,99.90
2019-03-22T21:46:52.963Z,99.90
2019-03-22T21:49:23.745Z,99.90
2019-03-22T21:51:54.542Z,99.90
2019-03-22T21:54:25.335Z,99.90
2019-03-22T21:56:56.106Z,99.90
2019-03-22T21:59:26.882Z,99.90
2019-03-22T22:01:57.999Z,99.90
2019-03-22T22:04:28.787Z,99.90
2019-03-22T22:06:59.562Z,99.90
2019-03-22T22:09:30.649Z,99.90
2019-03-22T22:12:01.760Z,99.90
2019-03-22T22:14:40.498Z,99.90
2019-03-22T22:17:05.278Z,99.90
2019-03-22T22:19:36.037Z,99.90
2019-03-22T22:22:06.817Z,99.90
2019-03-22T22:24:38.007Z,99.90
2019-03-22T22:27:13.733Z,99.90
2019-03-22T22:29:41.831Z,99.90
2019-03-22T22:32:12.621Z,99.90
2019-03-22T22:34:43.383Z,99.90
2019-03-22T22:37:14.186Z,99.90
2019-03-22T22:39:44.972Z,99.90
2019-03-22T22:42:15.775Z,99.90
2019-03-22T22:44:46.556Z,99.90
2019-03-22T22:47:17.708Z,99.90
2019-03-22T22:49:48.658Z,99.90
2019-03-22T22:52:19.688Z,99.90
2019-03-22T22:54:50.478Z,99.90
2019-03-22T22:57:21.266Z,99.90
2019-03-22T22:59:52.063Z,99.90
2019-03-22T23:02:22.907Z,99.90
2019-03-22T23:04:54.008Z,99.90
2019-03-22T23:07:24.794Z,99.90
2019-03-22T23:09:55.556Z,99.90
2019-03-22T23:12:26.347Z,99.90
2019-03-22T23:14:57.103Z,99.90
2019-03-22T23:17:27.885Z,99.90
2019-03-22T23:19:58.698Z,99.90
2019-03-22T23:22:29.449Z,99.90
2019-03-22T23:25:00.393Z,99.90
2019-03-22T23:27:31.197Z,99.90
2019-03-22T23:30:02.132Z,99.90
2019-03-22T23:32:33.326Z,99.90
2019-03-22T23:35:05.525Z,99.90
2019-03-22T23:37:36.318Z,99.90
2019-03-22T23:40:07.777Z,99.90
2019-03-22T23:42:38.565Z,99.90
2019-03-22T23:45:11.034Z,99.90
2019-03-22T23:47:41.822Z,99.90
2019-03-22T23:50:12.982Z,99.90
2019-03-22T23:52:44.028Z,99.90
2019-03-22T23:55:15.071Z,99.90
2019-03-22T23:57:45.858Z,99.90
